Terminal Aerodrome Forecast
Issued by NWS

Current Version | Previous Version | Text Only | Print | Product List | Glossary On
Versions: 1 2 3 4 5 6 7 8 9 10 11 12 13 14 15 16 17
000
FTUS45 KFGZ 261700
TAFGCN
TAF
KGCN 261729Z 2618/2718 34011G20KT P6SM SCT020 SCT040
      TEMPO 2619/2622 -SHRA BKN020
     FM270200 VRB05KT P6SM SCT060=

USA.gov is the U.S. government's official web portal to all federal, state and local government web resources and services.